Time;durP1;ratioP1;P1;durP2;ratioP2;P2;SDS_P1;SDS_P2;PMS_P1;PMS_P2;Temp;Humidity;BMP_temperature;BMP_pressure;BME280_temperature;BME280_humidity;BME280_pressure;Samples;Min_cycle;Max_cycle;Signal;HPM_P1;HPM_P2
2022/07/25 00:02:13;;;;;;;5.45;3.40;;;19.30;99.90;;;;;;5035987;28;20674;-67
2022/07/25 00:04:40;;;;;;;5.32;3.15;;;19.20;99.90;;;;;;5036171;28;20310;-67
2022/07/25 00:07:07;;;;;;;5.25;3.88;;;19.20;99.90;;;;;;5034121;28;20209;-67
2022/07/25 00:09:34;;;;;;;4.60;3.40;;;19.20;99.90;;;;;;5034875;28;20222;-67
2022/07/25 00:12:01;;;;;;;3.97;3.58;;;19.20;99.90;;;;;;5035075;28;20690;-66
2022/07/25 00:14:27;;;;;;;4.45;3.67;;;19.20;99.90;;;;;;5035773;28;20221;-67
2022/07/25 00:16:55;;;;;;;4.05;3.70;;;19.20;99.90;;;;;;5035787;28;20603;-67
2022/07/25 00:19:22;;;;;;;3.65;3.30;;;19.20;99.90;;;;;;5035698;28;20660;-67
2022/07/25 00:21:50;;;;;;;4.38;3.75;;;19.20;99.90;;;;;;5035414;28;20586;-68
2022/07/25 00:24:16;;;;;;;4.63;3.38;;;19.20;99.90;;;;;;5034601;28;20705;-67
2022/07/25 00:26:43;;;;;;;4.95;4.10;;;19.20;99.90;;;;;;5032555;28;20285;-67
2022/07/25 00:29:10;;;;;;;4.25;3.85;;;19.20;99.90;;;;;;5035501;28;20285;-68
2022/07/25 00:31:37;;;;;;;7.57;3.60;;;19.10;99.90;;;;;;5034897;28;20663;-68
2022/07/25 00:34:05;;;;;;;4.07;3.67;;;19.30;99.90;;;;;;5035344;28;20210;-68
2022/07/25 00:36:31;;;;;;;4.22;3.70;;;19.20;99.90;;;;;;5034912;28;20206;-68
2022/07/25 00:38:58;;;;;;;5.20;3.72;;;19.20;99.90;;;;;;5035411;28;20318;-67
2022/07/25 00:41:25;;;;;;;3.95;3.55;;;19.20;99.90;;;;;;5034458;28;20652;-67
2022/07/25 00:43:52;;;;;;;4.97;3.65;;;19.10;99.90;;;;;;5035648;28;20214;-67
2022/07/25 00:46:19;;;;;;;3.92;3.63;;;19.10;99.90;;;;;;5035983;28;20229;-66
2022/07/25 00:48:47;;;;;;;4.35;3.50;;;19.10;99.90;;;;;;5035888;28;20703;-66
2022/07/25 00:51:16;;;;;;;5.43;3.15;;;19.10;99.90;;;;;;5034834;28;20214;-66
2022/07/25 00:53:43;;;;;;;4.45;3.60;;;19.10;99.90;;;;;;5034265;28;20243;-66
2022/07/25 00:56:09;;;;;;;3.25;2.80;;;19.00;99.90;;;;;;5033510;28;20226;-66
2022/07/25 00:58:36;;;;;;;3.90;3.60;;;19.00;99.90;;;;;;5035110;28;20226;-67
2022/07/25 01:01:03;;;;;;;4.45;3.30;;;19.10;99.90;;;;;;5035250;28;20207;-67
2022/07/25 01:03:30;;;;;;;5.88;3.22;;;19.10;99.90;;;;;;5032670;28;20207;-66
2022/07/25 01:05:57;;;;;;;4.68;3.55;;;19.10;99.90;;;;;;5023348;28;20209;-67
2022/07/25 01:08:25;;;;;;;4.63;3.35;;;19.10;99.90;;;;;;5027307;28;20274;-67
2022/07/25 01:10:52;;;;;;;5.07;3.78;;;19.10;99.90;;;;;;5027455;28;20211;-68
2022/07/25 01:13:19;;;;;;;3.90;3.60;;;19.10;99.90;;;;;;5034486;28;20571;-67
2022/07/25 01:15:46;;;;;;;3.90;3.50;;;19.10;99.90;;;;;;5034679;28;20221;-67
2022/07/25 01:18:13;;;;;;;5.00;3.05;;;19.10;99.90;;;;;;5022800;28;20230;-67
2022/07/25 01:20:41;;;;;;;6.45;3.58;;;19.10;99.90;;;;;;5030527;28;20209;-68
2022/07/25 01:23:07;;;;;;;3.65;3.35;;;19.10;99.90;;;;;;5034650;28;20203;-67
2022/07/25 01:25:34;;;;;;;4.25;3.47;;;19.10;99.90;;;;;;5033119;28;20234;-68
2022/07/25 01:28:01;;;;;;;3.97;3.58;;;19.10;99.90;;;;;;5035239;28;20662;-68
2022/07/25 01:30:28;;;;;;;4.70;3.50;;;19.10;99.90;;;;;;5034213;28;20221;-66
2022/07/25 01:32:54;;;;;;;3.75;3.40;;;19.10;99.90;;;;;;5021665;28;20277;-67
2022/07/25 01:35:21;;;;;;;6.38;3.70;;;19.10;99.90;;;;;;5035464;28;20214;-67
2022/07/25 01:37:49;;;;;;;3.80;3.50;;;19.10;99.90;;;;;;5035475;28;20702;-67
2022/07/25 01:40:16;;;;;;;4.57;3.38;;;19.00;99.90;;;;;;5035266;28;20214;-67
2022/07/25 01:42:43;;;;;;;5.45;3.45;;;19.00;99.90;;;;;;5034703;28;20207;-66
2022/07/25 01:45:11;;;;;;;3.85;3.42;;;19.00;99.90;;;;;;5034742;28;20221;-67
2022/07/25 01:47:38;;;;;;;3.83;3.15;;;19.00;99.90;;;;;;5034614;28;20218;-66
2022/07/25 01:50:06;;;;;;;6.32;3.28;;;19.00;99.90;;;;;;5034876;28;20203;-68
2022/07/25 01:52:33;;;;;;;3.75;3.45;;;19.00;99.90;;;;;;5034403;28;20206;-67
2022/07/25 01:55:01;;;;;;;3.55;3.20;;;19.00;99.90;;;;;;5035602;28;20194;-69
2022/07/25 01:57:28;;;;;;;4.30;3.20;;;19.00;99.90;;;;;;5035344;28;20203;-67
2022/07/25 01:59:54;;;;;;;3.83;3.20;;;19.00;99.90;;;;;;5032679;28;20211;-67
2022/07/25 02:02:21;;;;;;;3.90;3.60;;;19.00;99.90;;;;;;5034748;28;20206;-68
2022/07/25 02:04:48;;;;;;;6.13;3.90;;;19.00;99.90;;;;;;5031334;28;20206;-66
2022/07/25 02:07:15;;;;;;;3.67;3.38;;;18.90;99.90;;;;;;5033550;28;20225;-66
2022/07/25 02:09:41;;;;;;;4.47;4.03;;;18.90;99.90;;;;;;5034294;28;20198;-67
2022/07/25 02:12:10;;;;;;;4.30;3.90;;;18.80;99.90;;;;;;5034079;28;20237;-68
2022/07/25 02:14:36;;;;;;;4.85;3.35;;;18.80;99.90;;;;;;5035674;28;20215;-68
2022/07/25 02:17:03;;;;;;;5.10;3.47;;;18.80;99.90;;;;;;5029522;28;20210;-68
2022/07/25 02:19:30;;;;;;;5.63;3.55;;;18.80;99.90;;;;;;5035287;28;20642;-68
2022/07/25 02:21:57;;;;;;;6.00;3.60;;;18.80;99.90;;;;;;5035399;28;20206;-69
2022/07/25 02:24:23;;;;;;;5.68;4.45;;;18.80;99.90;;;;;;5035375;28;20222;-69
2022/07/25 02:26:50;;;;;;;5.80;4.05;;;18.80;99.90;;;;;;5034419;28;20230;-68
2022/07/25 02:29:18;;;;;;;4.72;4.32;;;18.80;99.90;;;;;;5034698;28;20205;-68
2022/07/25 02:31:45;;;;;;;5.05;3.67;;;18.80;99.90;;;;;;5034171;28;20210;-68
2022/07/25 02:34:12;;;;;;;4.38;3.53;;;18.80;99.90;;;;;;5034788;28;20259;-68
2022/07/25 02:36:39;;;;;;;3.72;3.42;;;18.80;99.90;;;;;;5038396;28;20202;-68
2022/07/25 02:39:06;;;;;;;4.63;3.85;;;18.70;99.90;;;;;;5039006;28;20229;-67
2022/07/25 02:41:33;;;;;;;5.53;3.90;;;18.80;99.90;;;;;;5037884;28;20581;-68
2022/07/25 02:43:59;;;;;;;4.60;4.05;;;18.80;99.90;;;;;;5038261;28;20214;-68
2022/07/25 02:46:27;;;;;;;4.25;3.85;;;18.70;99.90;;;;;;5036319;28;20221;-68
2022/07/25 02:48:54;;;;;;;4.00;3.60;;;18.70;99.90;;;;;;5028937;28;20230;-67
2022/07/25 02:51:21;;;;;;;3.85;3.25;;;18.70;99.90;;;;;;5038790;28;20206;-67
2022/07/25 02:53:48;;;;;;;5.38;3.50;;;18.70;99.90;;;;;;5037763;28;20729;-67
2022/07/25 02:56:15;;;;;;;5.30;4.05;;;18.60;99.90;;;;;;5038291;28;20211;-67
2022/07/25 02:58:41;;;;;;;4.32;3.92;;;18.60;99.90;;;;;;5038271;28;20222;-67
2022/07/25 03:01:08;;;;;;;4.25;3.85;;;18.60;99.90;;;;;;5037215;28;20210;-67
2022/07/25 03:03:36;;;;;;;5.65;4.47;;;18.60;99.90;;;;;;5035715;28;20221;-69
2022/07/25 03:06:03;;;;;;;4.55;4.00;;;18.60;99.90;;;;;;5036922;28;20294;-68
2022/07/25 03:08:30;;;;;;;4.72;4.10;;;18.50;99.90;;;;;;5037829;28;20221;-67
2022/07/25 03:10:57;;;;;;;4.45;4.05;;;18.50;99.90;;;;;;5037890;28;20211;-67
2022/07/25 03:13:24;;;;;;;5.30;4.05;;;18.50;99.90;;;;;;5036447;28;20203;-68
2022/07/25 03:15:51;;;;;;;4.75;4.35;;;18.50;99.90;;;;;;5036152;28;20578;-67
2022/07/25 03:18:18;;;;;;;4.50;3.70;;;18.60;99.90;;;;;;5036368;28;20241;-68
2022/07/25 03:20:46;;;;;;;4.97;4.10;;;18.60;99.90;;;;;;5036605;28;20207;-68
2022/07/25 03:23:12;;;;;;;5.82;3.70;;;18.70;99.90;;;;;;5035905;28;20210;-67
2022/07/25 03:25:39;;;;;;;4.82;4.20;;;18.70;99.90;;;;;;5037875;28;20230;-68
2022/07/25 03:28:06;;;;;;;4.97;3.90;;;18.80;99.90;;;;;;5036702;28;20206;-67
2022/07/25 03:30:33;;;;;;;4.45;3.88;;;18.80;99.90;;;;;;5036908;28;20569;-68
2022/07/25 03:32:59;;;;;;;4.50;3.97;;;18.90;99.90;;;;;;5037841;28;20210;-69
2022/07/25 03:35:26;;;;;;;4.93;4.38;;;18.90;99.90;;;;;;5037800;28;20210;-68
2022/07/25 03:37:54;;;;;;;5.22;3.97;;;19.00;99.90;;;;;;5036527;28;20198;-67
2022/07/25 03:40:21;;;;;;;4.68;3.72;;;19.00;99.90;;;;;;5037094;28;20233;-67
2022/07/25 03:42:48;;;;;;;4.40;3.88;;;19.10;99.90;;;;;;5036871;28;20215;-67
2022/07/25 03:45:15;;;;;;;5.63;4.22;;;19.10;99.90;;;;;;5034810;28;20210;-68
2022/07/25 03:47:42;;;;;;;5.03;3.42;;;19.20;99.90;;;;;;5035158;28;20572;-68
2022/07/25 03:50:09;;;;;;;8.20;4.70;;;19.20;99.90;;;;;;5036470;28;20199;-67
2022/07/25 03:52:37;;;;;;;5.13;3.90;;;19.20;99.90;;;;;;5035541;28;20217;-68
2022/07/25 03:55:05;;;;;;;4.60;4.20;;;19.30;99.90;;;;;;5033932;28;20209;-68
2022/07/25 03:57:32;;;;;;;3.88;3.47;;;19.40;99.90;;;;;;5024679;28;20215;-67
2022/07/25 03:59:59;;;;;;;3.88;3.20;;;19.40;99.90;;;;;;5030960;28;20570;-68
2022/07/25 04:02:26;;;;;;;6.55;3.22;;;19.40;99.90;;;;;;5037141;28;20207;-67
2022/07/25 04:04:53;;;;;;;3.50;3.10;;;19.40;99.90;;;;;;5036085;28;20221;-68
2022/07/25 04:07:19;;;;;;;4.43;2.90;;;19.40;99.90;;;;;;5035791;28;20203;-68
2022/07/25 04:09:46;;;;;;;2.97;2.70;;;19.50;99.90;;;;;;5035867;28;20591;-68
2022/07/25 04:12:14;;;;;;;3.58;2.72;;;19.50;99.90;;;;;;5036179;28;20198;-68
2022/07/25 04:14:41;;;;;;;3.10;2.80;;;19.60;99.90;;;;;;5028799;28;20211;-69
2022/07/25 04:17:08;;;;;;;3.95;2.50;;;19.60;99.90;;;;;;5034483;28;20206;-67
2022/07/25 04:19:34;;;;;;;4.18;2.60;;;19.70;99.90;;;;;;5036759;28;20605;-67
2022/07/25 04:22:01;;;;;;;3.10;2.80;;;19.70;99.90;;;;;;5036071;28;20686;-68
2022/07/25 04:24:28;;;;;;;6.45;3.05;;;19.70;99.90;;;;;;5031855;28;20211;-68
2022/07/25 04:26:55;;;;;;;3.25;2.55;;;19.70;99.90;;;;;;5036429;28;20230;-68
2022/07/25 04:29:23;;;;;;;2.63;2.42;;;19.70;99.90;;;;;;5034479;28;20206;-68
2022/07/25 04:31:49;;;;;;;2.83;2.55;;;19.70;99.90;;;;;;5036418;28;20678;-67
2022/07/25 04:34:16;;;;;;;3.75;2.78;;;19.80;99.90;;;;;;5035569;28;20205;-67
2022/07/25 04:36:43;;;;;;;3.45;2.65;;;19.80;99.90;;;;;;5036267;28;20210;-68
2022/07/25 04:39:10;;;;;;;3.05;2.75;;;19.90;99.90;;;;;;5035849;28;20345;-68
2022/07/25 04:41:36;;;;;;;3.78;3.47;;;20.00;99.90;;;;;;5036663;28;20202;-69
2022/07/25 04:44:06;;;;;;;3.92;3.33;;;20.00;99.90;;;;;;5032473;28;20805;-68
2022/07/25 04:46:34;;;;;;;4.72;3.05;;;20.10;99.90;;;;;;5034530;28;20214;-67
2022/07/25 04:49:00;;;;;;;3.70;3.40;;;20.10;99.90;;;;;;5034931;28;20209;-68
2022/07/25 04:51:27;;;;;;;2.90;2.70;;;20.20;99.90;;;;;;5034739;28;20561;-68
2022/07/25 04:53:54;;;;;;;4.22;3.83;;;20.20;99.90;;;;;;5034802;28;20728;-68
2022/07/25 04:56:21;;;;;;;5.03;3.47;;;20.20;99.90;;;;;;5035049;28;20282;-68
2022/07/25 04:58:48;;;;;;;4.65;3.53;;;20.30;99.90;;;;;;5033644;28;20642;-69
2022/07/25 05:01:15;;;;;;;7.90;3.20;;;20.30;99.90;;;;;;5023995;28;20262;-68
2022/07/25 05:03:43;;;;;;;3.63;3.20;;;20.20;99.90;;;;;;5025443;28;20210;-70
2022/07/25 05:06:10;;;;;;;4.35;3.90;;;20.20;99.90;;;;;;5025164;28;20214;-70
2022/07/25 05:08:36;;;;;;;4.63;3.58;;;20.10;99.90;;;;;;5032248;28;20237;-70
2022/07/25 05:11:03;;;;;;;3.88;3.17;;;20.10;99.90;;;;;;5036145;28;20211;-70
2022/07/25 05:13:30;;;;;;;5.13;3.25;;;20.20;99.90;;;;;;5035688;28;20218;-69
2022/07/25 05:15:57;;;;;;;5.25;2.60;;;20.30;99.90;;;;;;5027463;28;20203;-71
2022/07/25 05:18:23;;;;;;;2.70;2.40;;;20.30;99.90;;;;;;5032334;28;20198;-70
2022/07/25 05:20:51;;;;;;;1.95;1.85;;;20.30;99.90;;;;;;5034415;28;20214;-70
2022/07/25 05:23:18;;;;;;;5.53;2.42;;;20.30;99.90;;;;;;5036335;28;20214;-72
2022/07/25 05:25:45;;;;;;;2.63;2.40;;;20.40;99.90;;;;;;5034618;28;20222;-71
2022/07/25 05:28:13;;;;;;;3.03;2.70;;;20.40;99.90;;;;;;5032489;28;20207;-69
2022/07/25 05:30:40;;;;;;;2.90;2.47;;;20.50;99.90;;;;;;5032109;28;20252;-68
2022/07/25 05:33:07;;;;;;;2.95;2.70;;;20.50;99.90;;;;;;5032334;28;20203;-68
2022/07/25 05:35:34;;;;;;;2.42;2.22;;;20.50;99.90;;;;;;5033203;28;20226;-70
2022/07/25 05:38:02;;;;;;;4.00;2.25;;;20.50;99.90;;;;;;5025366;28;20658;-73
2022/07/25 05:40:29;;;;;;;2.42;2.20;;;20.50;99.90;;;;;;5030917;28;20228;-70
2022/07/25 05:42:55;;;;;;;3.53;2.22;;;20.50;99.90;;;;;;5030731;28;20212;-69
2022/07/25 05:45:22;;;;;;;2.30;2.10;;;20.50;99.90;;;;;;5029680;28;20293;-70
2022/07/25 05:47:49;;;;;;;3.88;2.72;;;20.40;99.90;;;;;;5034165;28;20210;-71
2022/07/25 05:50:16;;;;;;;3.30;2.22;;;20.50;99.90;;;;;;5032065;28;20199;-68
2022/07/25 05:52:42;;;;;;;2.78;2.58;;;20.50;99.90;;;;;;5028239;28;20221;-67
2022/07/25 05:55:12;;;;;;;2.97;1.98;;;20.50;99.90;;;;;;5034684;28;20203;-72
2022/07/25 05:57:39;;;;;;;7.05;2.88;;;20.60;99.90;;;;;;5035797;28;20238;-70
2022/07/25 06:00:07;;;;;;;3.05;2.65;;;20.70;99.90;;;;;;5034973;28;20234;-70
2022/07/25 06:02:34;;;;;;;4.13;3.03;;;20.80;99.90;;;;;;5031683;28;20265;-68
2022/07/25 06:05:00;;;;;;;4.18;2.45;;;20.90;99.90;;;;;;5027372;28;20225;-69
2022/07/25 06:07:27;;;;;;;3.00;2.70;;;21.00;99.90;;;;;;5031073;28;20202;-67
2022/07/25 06:09:54;;;;;;;3.45;2.53;;;21.10;99.90;;;;;;5033581;28;20205;-67
2022/07/25 06:12:22;;;;;;;3.67;2.63;;;21.10;99.90;;;;;;5036949;28;20571;-67
2022/07/25 06:14:49;;;;;;;2.85;2.60;;;21.20;99.90;;;;;;5038762;28;20217;-66
2022/07/25 06:17:15;;;;;;;3.10;2.80;;;21.20;99.90;;;;;;5036342;28;20549;-64
2022/07/25 06:19:42;;;;;;;3.35;3.15;;;21.20;99.90;;;;;;5037495;28;20230;-69
2022/07/25 06:22:10;;;;;;;3.35;3.03;;;21.10;99.90;;;;;;5040064;28;20210;-70
2022/07/25 06:24:36;;;;;;;3.58;2.67;;;21.10;99.90;;;;;;5035826;28;20644;-69
2022/07/25 06:27:03;;;;;;;4.00;2.80;;;21.20;99.90;;;;;;5038157;28;20279;-70
2022/07/25 06:29:32;;;;;;;3.10;2.80;;;21.30;99.90;;;;;;5039429;28;20198;-69
2022/07/25 06:31:58;;;;;;;3.00;2.70;;;21.40;99.90;;;;;;5034030;28;20210;-67
2022/07/25 06:34:25;;;;;;;3.20;2.90;;;21.40;99.90;;;;;;5038548;28;20789;-66
2022/07/25 06:36:52;;;;;;;4.20;3.00;;;21.50;99.90;;;;;;5037758;28;20214;-70
2022/07/25 06:39:19;;;;;;;3.75;3.05;;;21.60;99.90;;;;;;5047189;28;20230;-70
2022/07/25 06:41:45;;;;;;;3.20;2.90;;;21.60;99.90;;;;;;5033344;28;20880;-67
2022/07/25 06:44:12;;;;;;;10.27;2.97;;;21.70;99.90;;;;;;5036894;28;20207;-69
2022/07/25 06:46:40;;;;;;;3.50;2.78;;;21.80;99.90;;;;;;5037537;28;20218;-68
2022/07/25 06:49:07;;;;;;;4.40;2.30;;;21.90;99.90;;;;;;5031373;28;20214;-70
2022/07/25 06:51:34;;;;;;;3.22;3.00;;;22.00;99.90;;;;;;5032507;28;20691;-70
2022/07/25 06:54:00;;;;;;;4.38;2.67;;;22.00;99.90;;;;;;5036099;28;20359;-70
2022/07/25 06:56:30;;;;;;;4.47;2.38;;;22.10;99.90;;;;;;5037510;28;20221;-70
2022/07/25 06:58:57;;;;;;;3.75;2.75;;;22.20;99.90;;;;;;5036855;28;20218;-70
2022/07/25 07:01:24;;;;;;;3.92;2.33;;;22.30;99.90;;;;;;5028722;28;20219;-70
2022/07/25 07:03:52;;;;;;;4.28;2.60;;;22.30;99.90;;;;;;5022104;28;20208;-71
2022/07/25 07:06:18;;;;;;;2.95;2.42;;;22.40;99.90;;;;;;5029291;28;20219;-71
2022/07/25 07:08:45;;;;;;;3.25;2.40;;;22.50;99.90;;;;;;5034522;28;20214;-70
2022/07/25 07:11:14;;;;;;;2.53;2.33;;;22.60;99.90;;;;;;5035549;28;20202;-74
2022/07/25 07:13:40;;;;;;;2.45;2.25;;;22.70;99.90;;;;;;5037487;28;20203;-70
2022/07/25 07:16:08;;;;;;;2.70;2.05;;;22.70;99.90;;;;;;5033310;28;20222;-70
2022/07/25 07:18:34;;;;;;;2.75;2.03;;;22.80;99.90;;;;;;5036243;28;20221;-70
2022/07/25 07:21:03;;;;;;;2.83;1.92;;;22.90;99.90;;;;;;5035941;28;20293;-71
2022/07/25 07:23:31;;;;;;;2.50;1.95;;;23.00;99.90;;;;;;5037109;28;20594;-71
2022/07/25 07:25:58;;;;;;;3.30;2.28;;;22.90;99.90;;;;;;5037297;28;20232;-71
2022/07/25 07:28:25;;;;;;;2.22;1.95;;;23.00;99.90;;;;;;5036695;28;20671;-71
2022/07/25 07:30:51;;;;;;;2.25;2.05;;;22.90;99.90;;;;;;5035714;28;20290;-69
2022/07/25 07:33:18;;;;;;;10.60;2.90;;;22.90;99.90;;;;;;5036479;28;20215;-71
2022/07/25 07:35:45;;;;;;;12.20;4.88;;;23.00;99.90;;;;;;5036043;28;20231;-70
2022/07/25 07:38:13;;;;;;;2.75;2.05;;;23.20;99.90;;;;;;5037315;28;20207;-70
2022/07/25 07:40:40;;;;;;;2.00;1.90;;;23.30;99.90;;;;;;5031560;28;20236;-69
2022/07/25 07:43:07;;;;;;;3.45;2.20;;;23.50;99.90;;;;;;5028609;28;20203;-71
2022/07/25 07:45:34;;;;;;;2.60;2.40;;;23.50;99.90;;;;;;5035570;28;20214;-71
2022/07/25 07:48:01;;;;;;;3.92;2.42;;;23.60;99.90;;;;;;5035477;28;20202;-70
2022/07/25 07:50:28;;;;;;;4.18;2.30;;;23.60;99.90;;;;;;5037499;28;20269;-71
2022/07/25 07:52:57;;;;;;;2.30;1.95;;;23.60;99.90;;;;;;5036668;28;20246;-71
2022/07/25 07:55:44;;;;;;;2.20;1.73;;;23.70;99.90;;;;;;5036460;28;20294;-70
2022/07/25 07:58:11;;;;;;;4.85;2.40;;;23.80;99.90;;;;;;5036093;28;20288;-70
2022/07/25 08:00:39;;;;;;;1.77;1.67;;;23.90;99.90;;;;;;5035124;28;20226;-70
2022/07/25 08:03:07;;;;;;;4.45;2.20;;;23.90;99.90;;;;;;5029231;28;20656;-70
2022/07/25 08:05:36;;;;;;;2.63;2.05;;;24.00;99.90;;;;;;5034759;28;20213;-70
2022/07/25 08:08:03;;;;;;;2.90;2.08;;;24.10;99.90;;;;;;5037681;28;20301;-71
2022/07/25 08:10:35;;;;;;;3.13;2.22;;;24.20;99.90;;;;;;5036956;28;20329;-70
2022/07/25 08:13:11;;;;;;;2.17;1.98;;;24.30;99.90;;;;;;5037591;28;20313;-69
2022/07/25 08:15:38;;;;;;;2.92;2.35;;;24.50;99.80;;;;;;5033494;28;20210;-71
2022/07/25 08:18:04;;;;;;;3.72;2.15;;;24.60;99.60;;;;;;5035588;28;20245;-68
2022/07/25 08:20:31;;;;;;;3.90;2.20;;;24.70;98.60;;;;;;5036685;28;20290;-69
2022/07/25 08:22:58;;;;;;;2.78;2.17;;;24.70;98.20;;;;;;5038310;28;20217;-69
2022/07/25 08:25:25;;;;;;;4.55;1.90;;;24.70;97.70;;;;;;5036212;28;20233;-70
2022/07/25 08:27:53;;;;;;;2.60;1.85;;;24.70;97.40;;;;;;5037846;28;20210;-69
2022/07/25 08:30:20;;;;;;;5.57;2.15;;;24.70;97.40;;;;;;5036701;28;20214;-67
2022/07/25 08:32:48;;;;;;;3.17;2.05;;;24.80;97.30;;;;;;5035690;28;20207;-66
2022/07/25 08:35:15;;;;;;;2.28;1.90;;;24.80;97.10;;;;;;5034010;28;20211;-66
2022/07/25 08:37:42;;;;;;;2.00;1.83;;;25.10;96.90;;;;;;5034900;28;20206;-69
2022/07/25 08:40:10;;;;;;;1.73;1.63;;;25.30;96.40;;;;;;5033680;28;20288;-69
2022/07/25 08:42:38;;;;;;;2.67;2.25;;;25.50;95.60;;;;;;5035682;28;20230;-69
2022/07/25 08:45:08;;;;;;;2.40;1.98;;;25.60;95.00;;;;;;5034942;28;20213;-67
2022/07/25 08:47:35;;;;;;;1.67;1.55;;;25.60;95.00;;;;;;5033679;28;20566;-68
2022/07/25 08:50:04;;;;;;;1.98;1.80;;;25.80;95.00;;;;;;5034902;28;20202;-68
2022/07/25 08:52:33;;;;;;;2.72;2.30;;;25.90;93.80;;;;;;5034685;28;20241;-69
2022/07/25 08:55:01;;;;;;;3.03;1.77;;;26.00;92.90;;;;;;5032432;28;20675;-68
2022/07/25 08:57:27;;;;;;;3.92;1.92;;;26.10;92.50;;;;;;5034448;28;20310;-67
2022/07/25 08:59:57;;;;;;;4.50;1.90;;;26.20;92.20;;;;;;5033012;28;20699;-69
2022/07/25 09:02:26;;;;;;;1.90;1.80;;;26.30;91.60;;;;;;5032672;28;20667;-68
2022/07/25 09:04:53;;;;;;;2.22;1.80;;;26.30;91.10;;;;;;5035273;28;20214;-68
2022/07/25 09:07:30;;;;;;;4.30;1.80;;;26.40;91.30;;;;;;5034515;28;20213;-68
2022/07/25 09:09:57;;;;;;;3.83;2.40;;;26.60;90.90;;;;;;5033378;28;20199;-68
2022/07/25 09:12:27;;;;;;;1.80;1.67;;;26.70;90.40;;;;;;5025371;28;20210;-67
2022/07/25 09:14:54;;;;;;;2.20;1.95;;;27.00;89.70;;;;;;5033734;28;20210;-67
2022/07/25 09:17:21;;;;;;;2.08;1.88;;;27.20;88.60;;;;;;5031826;28;20219;-68
2022/07/25 09:19:53;;;;;;;1.90;1.73;;;27.40;87.90;;;;;;5033415;28;20229;-68
2022/07/25 09:22:20;;;;;;;2.17;1.80;;;27.50;87.40;;;;;;5031615;28;20210;-67
2022/07/25 09:24:47;;;;;;;3.22;1.90;;;27.70;86.30;;;;;;5033198;28;20214;-68
2022/07/25 09:27:16;;;;;;;1.80;1.70;;;27.70;83.70;;;;;;5034090;28;20553;-67
2022/07/25 09:29:43;;;;;;;2.35;1.70;;;27.70;83.50;;;;;;5024246;28;20246;-69
2022/07/25 09:32:19;;;;;;;2.20;2.00;;;27.80;82.90;;;;;;5031414;28;20606;-67
2022/07/25 09:34:47;;;;;;;1.98;1.83;;;28.00;83.30;;;;;;5025531;28;20213;-68
2022/07/25 09:37:17;;;;;;;2.60;1.50;;;28.10;81.90;;;;;;5029447;28;20221;-69
2022/07/25 09:39:45;;;;;;;3.97;2.00;;;28.30;80.70;;;;;;5024274;28;20576;-69
2022/07/25 09:42:21;;;;;;;2.13;1.92;;;28.50;80.30;;;;;;5033494;28;20210;-68
2022/07/25 09:45:04;;;;;;;3.17;2.88;;;28.60;79.20;;;;;;5033864;28;20293;-68
2022/07/25 09:47:31;;;;;;;2.38;1.70;;;28.60;77.60;;;;;;5034805;28;20206;-68
2022/07/25 09:49:58;;;;;;;3.17;2.30;;;28.60;77.30;;;;;;5036969;28;20202;-68
2022/07/25 09:52:27;;;;;;;2.95;2.10;;;28.60;76.80;;;;;;5033323;28;20223;-69
2022/07/25 09:54:54;;;;;;;3.05;2.05;;;28.70;76.10;;;;;;5022949;28;20257;-69
2022/07/25 09:57:22;;;;;;;1.60;1.50;;;28.70;75.80;;;;;;5033175;28;20217;-69
2022/07/25 09:59:49;;;;;;;2.22;2.03;;;28.80;75.10;;;;;;5035217;28;20213;-69
2022/07/25 10:02:30;;;;;;;2.08;1.67;;;29.00;74.20;;;;;;5032649;28;20300;-69
2022/07/25 10:05:09;;;;;;;1.80;1.70;;;29.10;73.80;;;;;;5028129;28;20210;-69
2022/07/25 10:07:39;;;;;;;1.80;1.50;;;29.30;72.70;;;;;;5033197;28;20207;-69
2022/07/25 10:10:07;;;;;;;2.08;1.92;;;29.30;71.20;;;;;;5033807;28;20206;-68
2022/07/25 10:12:36;;;;;;;5.18;1.80;;;29.30;70.30;;;;;;5032432;28;20214;-69
2022/07/25 10:15:07;;;;;;;2.20;2.00;;;29.10;70.10;;;;;;5026385;28;20211;-69
2022/07/25 10:17:34;;;;;;;2.00;1.90;;;28.90;70.70;;;;;;5029111;28;20202;-70
2022/07/25 10:20:02;;;;;;;2.13;1.40;;;28.80;70.20;;;;;;5032780;28;20215;-69
2022/07/25 10:22:42;;;;;;;1.98;1.70;;;28.90;70.40;;;;;;5025848;28;20672;-68
2022/07/25 10:25:13;;;;;;;2.38;1.75;;;28.80;69.40;;;;;;5028180;28;20241;-68
2022/07/25 10:27:47;;;;;;;2.85;1.60;;;28.80;70.40;;;;;;5029230;28;20207;-69
2022/07/25 10:30:24;;;;;;;3.03;1.83;;;29.00;70.50;;;;;;5029728;28;20235;-70
2022/07/25 10:32:55;;;;;;;3.53;1.58;;;29.10;70.00;;;;;;5027972;28;20198;-65
2022/07/25 10:35:24;;;;;;;1.67;1.58;;;29.10;68.70;;;;;;5025376;28;20206;-66
2022/07/25 10:37:54;;;;;;;2.47;1.90;;;29.20;68.30;;;;;;5032643;28;20465;-66
2022/07/25 10:40:36;;;;;;;4.43;2.00;;;29.30;67.50;;;;;;5033454;28;20206;-67
2022/07/25 10:43:08;;;;;;;2.78;1.73;;;29.50;66.80;;;;;;5033392;28;20226;-66
2022/07/25 10:45:40;;;;;;;1.92;1.70;;;29.70;66.70;;;;;;5032868;28;20272;-68
2022/07/25 10:48:09;;;;;;;1.88;1.73;;;30.00;66.20;;;;;;5034217;28;20202;-68
2022/07/25 10:50:47;;;;;;;2.00;1.70;;;30.20;65.10;;;;;;5031424;28;20209;-68
2022/07/25 10:53:15;;;;;;;1.90;1.80;;;30.40;64.20;;;;;;5031959;28;20231;-68
2022/07/25 10:55:47;;;;;;;1.75;1.65;;;30.70;64.40;;;;;;5025827;28;20238;-68
2022/07/25 10:58:13;;;;;;;3.38;2.85;;;30.80;63.10;;;;;;5034684;28;20384;-67
2022/07/25 11:00:44;;;;;;;2.08;1.67;;;30.80;62.60;;;;;;5040135;28;20576;-67
2022/07/25 11:03:12;;;;;;;3.67;1.90;;;30.70;62.10;;;;;;5036839;28;20210;-67
2022/07/25 11:05:46;;;;;;;2.35;2.15;;;30.60;62.70;;;;;;5032836;28;20222;-68
2022/07/25 11:08:15;;;;;;;3.47;1.88;;;30.60;62.80;;;;;;5035749;28;20207;-68
2022/07/25 11:10:50;;;;;;;3.15;1.80;;;30.50;62.20;;;;;;5036085;28;20220;-67
2022/07/25 11:13:17;;;;;;;2.05;1.70;;;30.60;61.90;;;;;;5032247;28;20677;-69
2022/07/25 11:15:44;;;;;;;1.63;1.52;;;30.80;61.60;;;;;;5037122;28;20546;-68
2022/07/25 11:18:11;;;;;;;5.30;2.15;;;30.70;61.10;;;;;;5036740;28;20656;-68
2022/07/25 11:20:37;;;;;;;3.15;2.78;;;30.60;61.30;;;;;;5036635;28;20213;-68
2022/07/25 11:23:04;;;;;;;1.70;1.60;;;30.60;61.30;;;;;;5035008;28;20655;-66
2022/07/25 11:25:32;;;;;;;2.60;2.10;;;30.70;60.90;;;;;;5034897;28;20219;-68
2022/07/25 11:28:01;;;;;;;2.00;1.80;;;30.80;60.30;;;;;;5036530;28;20647;-68
2022/07/25 11:30:29;;;;;;;2.25;1.67;;;30.90;60.30;;;;;;5035301;28;20614;-67
2022/07/25 11:32:58;;;;;;;2.35;2.00;;;30.90;59.70;;;;;;5031195;28;20214;-65
2022/07/25 11:35:27;;;;;;;6.85;2.50;;;30.80;59.80;;;;;;5036095;28;20289;-64
2022/07/25 11:37:54;;;;;;;2.88;2.05;;;30.80;60.30;;;;;;5035796;28;20554;-67
2022/07/25 11:40:22;;;;;;;2.38;1.70;;;30.90;59.80;;;;;;5036723;28;20214;-66
2022/07/25 11:42:52;;;;;;;2.55;2.08;;;31.00;59.90;;;;;;5036885;28;20219;-67
2022/07/25 11:45:20;;;;;;;6.53;2.00;;;31.20;59.70;;;;;;5028076;28;20207;-67
2022/07/25 11:47:49;;;;;;;5.82;2.15;;;31.30;59.40;;;;;;5030788;28;20198;-66
2022/07/25 11:50:16;;;;;;;7.78;2.40;;;31.30;59.20;;;;;;5030522;28;20214;-65
2022/07/25 11:52:44;;;;;;;3.53;1.90;;;31.20;59.70;;;;;;5037013;28;20241;-64
2022/07/25 11:55:13;;;;;;;3.15;2.15;;;31.40;59.70;;;;;;5035765;28;20211;-66
2022/07/25 11:57:44;;;;;;;5.05;2.05;;;31.60;59.10;;;;;;5035438;28;20213;-65
2022/07/25 12:00:18;;;;;;;5.10;2.15;;;31.60;58.40;;;;;;5035168;28;20203;-66
2022/07/25 12:02:45;;;;;;;2.60;2.35;;;31.70;58.60;;;;;;5033708;28;20211;-67
2022/07/25 12:05:15;;;;;;;3.42;1.70;;;31.80;58.20;;;;;;5032349;28;20214;-68
2022/07/25 12:07:44;;;;;;;3.10;1.92;;;31.80;57.90;;;;;;5035749;28;20207;-70
2022/07/25 12:10:15;;;;;;;2.05;1.70;;;31.90;57.30;;;;;;5036886;28;20216;-69
2022/07/25 12:12:43;;;;;;;4.05;1.65;;;31.90;57.20;;;;;;5036143;28;20244;-68
2022/07/25 12:15:13;;;;;;;3.03;1.65;;;31.90;56.50;;;;;;5035485;28;20229;-68
2022/07/25 12:17:42;;;;;;;2.88;1.40;;;31.80;57.10;;;;;;5034858;28;20703;-69
2022/07/25 12:20:14;;;;;;;1.75;1.60;;;31.80;57.40;;;;;;5031140;28;20305;-68
2022/07/25 12:22:41;;;;;;;3.28;2.03;;;31.80;57.20;;;;;;5035216;28;20741;-68
2022/07/25 12:25:09;;;;;;;3.75;1.95;;;31.80;56.70;;;;;;5034735;28;20238;-68
2022/07/25 12:27:35;;;;;;;5.97;2.35;;;31.70;56.90;;;;;;5033346;28;20632;-68
2022/07/25 12:30:03;;;;;;;2.75;1.70;;;31.70;57.10;;;;;;5030702;28;20791;-69
2022/07/25 12:32:31;;;;;;;1.70;1.60;;;31.40;56.90;;;;;;5029524;28;20654;-69
2022/07/25 12:34:58;;;;;;;3.08;1.85;;;31.20;57.50;;;;;;5033004;28;20207;-71
2022/07/25 12:37:25;;;;;;;3.25;1.55;;;31.20;57.30;;;;;;5033744;28;20213;-69
2022/07/25 12:39:52;;;;;;;1.67;1.55;;;31.20;57.10;;;;;;5034419;28;20225;-69
2022/07/25 12:42:19;;;;;;;1.60;1.50;;;31.10;56.80;;;;;;5033717;28;20223;-69
2022/07/25 12:44:46;;;;;;;3.47;1.83;;;31.20;56.90;;;;;;5021142;28;20225;-70
2022/07/25 12:47:13;;;;;;;1.73;1.63;;;31.10;56.60;;;;;;5033428;28;20217;-69
2022/07/25 12:49:41;;;;;;;2.47;2.22;;;31.10;56.40;;;;;;5033287;28;20217;-69